sensor_id;sensor_type;location;lat;lon;timestamp;P1;durP1;ratioP1;P2;durP2;ratioP2
83511;SDS011;73446;0.000;0.000;2023-12-04T00:00:30;2.85;;;2.15;;
83511;SDS011;73446;0.000;0.000;2023-12-04T00:03:14;2.42;;;1.92;;
83511;SDS011;73446;0.000;0.000;2023-12-04T00:05:58;2.33;;;1.77;;
83511;SDS011;73446;0.000;0.000;2023-12-04T00:08:42;2.45;;;1.77;;
83511;SDS011;73446;0.000;0.000;2023-12-04T00:11:26;2.67;;;2.08;;
83511;SDS011;73446;0.000;0.000;2023-12-04T00:14:10;2.47;;;1.70;;
83511;SDS011;73446;0.000;0.000;2023-12-04T00:16:54;3.53;;;2.08;;
83511;SDS011;73446;0.000;0.000;2023-12-04T00:19:38;2.90;;;1.67;;
83511;SDS011;73446;0.000;0.000;2023-12-04T00:22:23;3.15;;;2.53;;
83511;SDS011;73446;0.000;0.000;2023-12-04T00:25:07;2.38;;;1.65;;
83511;SDS011;73446;0.000;0.000;2023-12-04T00:27:52;4.00;;;1.92;;
83511;SDS011;73446;0.000;0.000;2023-12-04T00:30:35;3.72;;;1.67;;
83511;SDS011;73446;0.000;0.000;2023-12-04T00:33:20;2.97;;;1.95;;
83511;SDS011;73446;0.000;0.000;2023-12-04T00:36:04;2.80;;;1.95;;
83511;SDS011;73446;0.000;0.000;2023-12-04T00:38:48;1.75;;;1.40;;
83511;SDS011;73446;0.000;0.000;2023-12-04T00:41:32;2.53;;;1.25;;
83511;SDS011;73446;0.000;0.000;2023-12-04T00:44:16;2.58;;;1.48;;
83511;SDS011;73446;0.000;0.000;2023-12-04T00:47:00;3.05;;;1.92;;
83511;SDS011;73446;0.000;0.000;2023-12-04T00:49:44;2.30;;;2.03;;
83511;SDS011;73446;0.000;0.000;2023-12-04T00:52:28;2.58;;;1.80;;
83511;SDS011;73446;0.000;0.000;2023-12-04T00:55:13;2.42;;;1.65;;
83511;SDS011;73446;0.000;0.000;2023-12-04T00:57:57;2.75;;;1.33;;
83511;SDS011;73446;0.000;0.000;2023-12-04T01:00:41;2.08;;;0.85;;
83511;SDS011;73446;0.000;0.000;2023-12-04T01:03:25;2.20;;;1.85;;
83511;SDS011;73446;0.000;0.000;2023-12-04T01:06:19;2.15;;;1.42;;
83511;SDS011;73446;0.000;0.000;2023-12-04T01:09:04;4.32;;;1.95;;
83511;SDS011;73446;0.000;0.000;2023-12-04T01:11:49;3.38;;;1.73;;
83511;SDS011;73446;0.000;0.000;2023-12-04T01:14:35;2.45;;;1.75;;
83511;SDS011;73446;0.000;0.000;2023-12-04T01:17:21;2.33;;;2.05;;
83511;SDS011;73446;0.000;0.000;2023-12-04T01:20:06;2.50;;;1.42;;
83511;SDS011;73446;0.000;0.000;2023-12-04T01:22:51;2.85;;;0.73;;
83511;SDS011;73446;0.000;0.000;2023-12-04T01:25:34;2.60;;;1.08;;
83511;SDS011;73446;0.000;0.000;2023-12-04T01:28:19;2.47;;;1.02;;
83511;SDS011;73446;0.000;0.000;2023-12-04T01:31:03;1.67;;;1.33;;
83511;SDS011;73446;0.000;0.000;2023-12-04T01:33:47;2.40;;;1.52;;
83511;SDS011;73446;0.000;0.000;2023-12-04T01:36:31;2.15;;;1.45;;
83511;SDS011;73446;0.000;0.000;2023-12-04T01:39:16;1.58;;;0.73;;
83511;SDS011;73446;0.000;0.000;2023-12-04T01:42:00;1.58;;;1.00;;
83511;SDS011;73446;0.000;0.000;2023-12-04T01:44:44;1.58;;;0.73;;
83511;SDS011;73446;0.000;0.000;2023-12-04T01:47:28;2.15;;;1.95;;
83511;SDS011;73446;0.000;0.000;2023-12-04T01:50:12;2.13;;;1.15;;
83511;SDS011;73446;0.000;0.000;2023-12-04T01:52:58;2.40;;;2.08;;
83511;SDS011;73446;0.000;0.000;2023-12-04T01:55:42;1.73;;;0.93;;
83511;SDS011;73446;0.000;0.000;2023-12-04T01:58:26;1.55;;;1.02;;
83511;SDS011;73446;0.000;0.000;2023-12-04T02:01:10;1.50;;;1.00;;
83511;SDS011;73446;0.000;0.000;2023-12-04T02:03:55;1.58;;;1.05;;
83511;SDS011;73446;0.000;0.000;2023-12-04T02:06:40;2.10;;;0.90;;
83511;SDS011;73446;0.000;0.000;2023-12-04T02:09:25;1.60;;;0.77;;
83511;SDS011;73446;0.000;0.000;2023-12-04T02:12:08;2.03;;;1.38;;
83511;SDS011;73446;0.000;0.000;2023-12-04T02:14:53;1.52;;;0.85;;
83511;SDS011;73446;0.000;0.000;2023-12-04T02:17:37;1.90;;;0.90;;
83511;SDS011;73446;0.000;0.000;2023-12-04T02:20:30;1.98;;;1.25;;
83511;SDS011;73446;0.000;0.000;2023-12-04T02:23:17;2.20;;;1.90;;
83511;SDS011;73446;0.000;0.000;2023-12-04T02:26:03;2.00;;;0.82;;
83511;SDS011;73446;0.000;0.000;2023-12-04T02:28:55;1.88;;;1.20;;
83511;SDS011;73446;0.000;0.000;2023-12-04T02:31:44;2.03;;;1.05;;
83511;SDS011;73446;0.000;0.000;2023-12-04T02:34:29;1.60;;;1.08;;
83511;SDS011;73446;0.000;0.000;2023-12-04T02:37:16;2.80;;;1.27;;
83511;SDS011;73446;0.000;0.000;2023-12-04T02:40:01;1.77;;;0.85;;
83511;SDS011;73446;0.000;0.000;2023-12-04T02:42:46;2.05;;;0.75;;
83511;SDS011;73446;0.000;0.000;2023-12-04T02:45:30;1.45;;;1.17;;
83511;SDS011;73446;0.000;0.000;2023-12-04T02:48:14;2.70;;;1.20;;
83511;SDS011;73446;0.000;0.000;2023-12-04T02:50:58;1.50;;;1.08;;
83511;SDS011;73446;0.000;0.000;2023-12-04T02:53:42;2.65;;;0.60;;
83511;SDS011;73446;0.000;0.000;2023-12-04T02:56:25;1.83;;;1.52;;
83511;SDS011;73446;0.000;0.000;2023-12-04T02:59:09;2.25;;;1.38;;
83511;SDS011;73446;0.000;0.000;2023-12-04T03:01:53;2.88;;;1.13;;
83511;SDS011;73446;0.000;0.000;2023-12-04T03:04:37;1.80;;;1.45;;
83511;SDS011;73446;0.000;0.000;2023-12-04T03:07:21;1.55;;;1.00;;
83511;SDS011;73446;0.000;0.000;2023-12-04T03:10:07;2.22;;;0.70;;
83511;SDS011;73446;0.000;0.000;2023-12-04T03:12:51;2.50;;;1.80;;
83511;SDS011;73446;0.000;0.000;2023-12-04T03:15:35;0.90;;;0.50;;
83511;SDS011;73446;0.000;0.000;2023-12-04T03:18:19;3.15;;;1.45;;
83511;SDS011;73446;0.000;0.000;2023-12-04T03:21:04;2.30;;;0.90;;
83511;SDS011;73446;0.000;0.000;2023-12-04T03:23:48;1.77;;;1.58;;
83511;SDS011;73446;0.000;0.000;2023-12-04T03:26:32;0.95;;;0.40;;
83511;SDS011;73446;0.000;0.000;2023-12-04T03:29:16;1.23;;;0.43;;
83511;SDS011;73446;0.000;0.000;2023-12-04T03:31:59;1.88;;;0.80;;
83511;SDS011;73446;0.000;0.000;2023-12-04T03:34:43;1.45;;;0.57;;
83511;SDS011;73446;0.000;0.000;2023-12-04T03:37:28;1.27;;;0.93;;
83511;SDS011;73446;0.000;0.000;2023-12-04T03:40:12;1.73;;;0.77;;
83511;SDS011;73446;0.000;0.000;2023-12-04T03:42:56;1.35;;;0.75;;
83511;SDS011;73446;0.000;0.000;2023-12-04T03:45:40;0.88;;;0.77;;
83511;SDS011;73446;0.000;0.000;2023-12-04T03:48:24;1.13;;;0.63;;
83511;SDS011;73446;0.000;0.000;2023-12-04T03:51:08;1.90;;;1.02;;
83511;SDS011;73446;0.000;0.000;2023-12-04T03:53:52;1.67;;;0.57;;
83511;SDS011;73446;0.000;0.000;2023-12-04T03:56:36;1.23;;;0.95;;
83511;SDS011;73446;0.000;0.000;2023-12-04T03:59:21;1.02;;;0.30;;
83511;SDS011;73446;0.000;0.000;2023-12-04T04:02:05;1.58;;;1.13;;
83511;SDS011;73446;0.000;0.000;2023-12-04T04:04:49;1.45;;;1.23;;
83511;SDS011;73446;0.000;0.000;2023-12-04T04:07:33;0.98;;;0.70;;
83511;SDS011;73446;0.000;0.000;2023-12-04T04:10:17;1.35;;;0.98;;
83511;SDS011;73446;0.000;0.000;2023-12-04T04:13:01;1.23;;;0.88;;
83511;SDS011;73446;0.000;0.000;2023-12-04T04:15:45;1.63;;;0.63;;
83511;SDS011;73446;0.000;0.000;2023-12-04T04:18:29;1.30;;;0.68;;
83511;SDS011;73446;0.000;0.000;2023-12-04T04:21:13;1.98;;;1.83;;
83511;SDS011;73446;0.000;0.000;2023-12-04T04:23:57;1.13;;;0.82;;
83511;SDS011;73446;0.000;0.000;2023-12-04T04:26:41;0.70;;;0.17;;
83511;SDS011;73446;0.000;0.000;2023-12-04T04:29:26;0.60;;;0.28;;
83511;SDS011;73446;0.000;0.000;2023-12-04T04:32:10;2.25;;;0.77;;
83511;SDS011;73446;0.000;0.000;2023-12-04T04:34:54;0.82;;;0.47;;
83511;SDS011;73446;0.000;0.000;2023-12-04T04:37:38;0.95;;;0.45;;
83511;SDS011;73446;0.000;0.000;2023-12-04T04:40:22;1.23;;;0.82;;
83511;SDS011;73446;0.000;0.000;2023-12-04T04:43:06;0.80;;;0.32;;
83511;SDS011;73446;0.000;0.000;2023-12-04T04:45:49;0.95;;;0.47;;
83511;SDS011;73446;0.000;0.000;2023-12-04T04:48:33;1.15;;;0.45;;
83511;SDS011;73446;0.000;0.000;2023-12-04T04:51:17;0.65;;;0.47;;
83511;SDS011;73446;0.000;0.000;2023-12-04T04:54:02;2.17;;;0.47;;
83511;SDS011;73446;0.000;0.000;2023-12-04T04:56:46;0.70;;;0.28;;
83511;SDS011;73446;0.000;0.000;2023-12-04T04:59:30;0.52;;;0.22;;
83511;SDS011;73446;0.000;0.000;2023-12-04T05:02:15;1.88;;;0.47;;
83511;SDS011;73446;0.000;0.000;2023-12-04T05:05:02;0.93;;;0.68;;
83511;SDS011;73446;0.000;0.000;2023-12-04T05:07:47;0.88;;;0.25;;
83511;SDS011;73446;0.000;0.000;2023-12-04T05:10:31;1.00;;;0.45;;
83511;SDS011;73446;0.000;0.000;2023-12-04T05:13:15;2.05;;;0.60;;
83511;SDS011;73446;0.000;0.000;2023-12-04T05:15:59;1.70;;;1.38;;
83511;SDS011;73446;0.000;0.000;2023-12-04T05:18:43;1.00;;;0.35;;
83511;SDS011;73446;0.000;0.000;2023-12-04T05:21:26;0.80;;;0.65;;
83511;SDS011;73446;0.000;0.000;2023-12-04T05:24:11;0.40;;;0.17;;
83511;SDS011;73446;0.000;0.000;2023-12-04T05:26:55;1.45;;;0.85;;
83511;SDS011;73446;0.000;0.000;2023-12-04T05:29:39;1.00;;;0.70;;
83511;SDS011;73446;0.000;0.000;2023-12-04T05:32:23;0.93;;;0.35;;
83511;SDS011;73446;0.000;0.000;2023-12-04T05:35:07;0.75;;;0.30;;
83511;SDS011;73446;0.000;0.000;2023-12-04T05:37:51;1.00;;;0.45;;
83511;SDS011;73446;0.000;0.000;2023-12-04T05:40:38;1.02;;;0.28;;
83511;SDS011;73446;0.000;0.000;2023-12-04T05:43:22;1.27;;;1.17;;
83511;SDS011;73446;0.000;0.000;2023-12-04T05:46:07;1.00;;;0.68;;
83511;SDS011;73446;0.000;0.000;2023-12-04T05:48:51;0.95;;;0.93;;
83511;SDS011;73446;0.000;0.000;2023-12-04T05:51:35;1.05;;;0.65;;
83511;SDS011;73446;0.000;0.000;2023-12-04T05:54:19;1.08;;;0.73;;
83511;SDS011;73446;0.000;0.000;2023-12-04T05:57:04;1.23;;;0.35;;
83511;SDS011;73446;0.000;0.000;2023-12-04T05:59:48;0.60;;;0.47;;
83511;SDS011;73446;0.000;0.000;2023-12-04T06:02:32;0.95;;;0.40;;
83511;SDS011;73446;0.000;0.000;2023-12-04T06:05:16;1.33;;;0.68;;
83511;SDS011;73446;0.000;0.000;2023-12-04T06:08:00;0.45;;;0.20;;
83511;SDS011;73446;0.000;0.000;2023-12-04T06:10:45;1.92;;;1.83;;
83511;SDS011;73446;0.000;0.000;2023-12-04T06:13:29;0.82;;;0.20;;
83511;SDS011;73446;0.000;0.000;2023-12-04T06:16:13;0.60;;;0.38;;
83511;SDS011;73446;0.000;0.000;2023-12-04T06:18:57;0.93;;;0.85;;
83511;SDS011;73446;0.000;0.000;2023-12-04T06:21:41;1.02;;;0.52;;
83511;SDS011;73446;0.000;0.000;2023-12-04T06:24:25;1.15;;;0.25;;
83511;SDS011;73446;0.000;0.000;2023-12-04T06:27:09;1.90;;;0.95;;
83511;SDS011;73446;0.000;0.000;2023-12-04T06:29:59;1.58;;;0.70;;
83511;SDS011;73446;0.000;0.000;2023-12-04T06:32:44;1.02;;;0.47;;
83511;SDS011;73446;0.000;0.000;2023-12-04T06:35:28;1.98;;;0.60;;
83511;SDS011;73446;0.000;0.000;2023-12-04T06:38:13;5.38;;;0.47;;
83511;SDS011;73446;0.000;0.000;2023-12-04T06:41:00;3.65;;;1.08;;
83511;SDS011;73446;0.000;0.000;2023-12-04T06:43:44;1.33;;;1.23;;
83511;SDS011;73446;0.000;0.000;2023-12-04T06:46:28;1.00;;;0.40;;
83511;SDS011;73446;0.000;0.000;2023-12-04T06:49:14;1.73;;;0.32;;
83511;SDS011;73446;0.000;0.000;2023-12-04T06:52:01;1.70;;;0.70;;
83511;SDS011;73446;0.000;0.000;2023-12-04T06:54:45;1.23;;;0.43;;
83511;SDS011;73446;0.000;0.000;2023-12-04T06:57:29;3.80;;;0.70;;
83511;SDS011;73446;0.000;0.000;2023-12-04T07:00:13;0.88;;;0.55;;
83511;SDS011;73446;0.000;0.000;2023-12-04T07:02:58;1.25;;;0.75;;
83511;SDS011;73446;0.000;0.000;2023-12-04T07:05:42;0.88;;;0.47;;
83511;SDS011;73446;0.000;0.000;2023-12-04T07:08:26;1.40;;;0.55;;
83511;SDS011;73446;0.000;0.000;2023-12-04T07:11:10;1.23;;;0.65;;
83511;SDS011;73446;0.000;0.000;2023-12-04T07:13:57;1.55;;;0.43;;
83511;SDS011;73446;0.000;0.000;2023-12-04T07:16:44;0.88;;;0.52;;
83511;SDS011;73446;0.000;0.000;2023-12-04T07:19:30;1.15;;;0.93;;
83511;SDS011;73446;0.000;0.000;2023-12-04T07:22:15;1.27;;;0.98;;
83511;SDS011;73446;0.000;0.000;2023-12-04T07:24:58;1.02;;;0.52;;
83511;SDS011;73446;0.000;0.000;2023-12-04T07:27:42;1.63;;;0.82;;
83511;SDS011;73446;0.000;0.000;2023-12-04T07:30:26;1.70;;;0.52;;
83511;SDS011;73446;0.000;0.000;2023-12-04T07:33:10;1.73;;;0.15;;
83511;SDS011;73446;0.000;0.000;2023-12-04T07:35:54;1.42;;;1.08;;
83511;SDS011;73446;0.000;0.000;2023-12-04T07:38:38;1.58;;;0.60;;
83511;SDS011;73446;0.000;0.000;2023-12-04T07:41:22;3.05;;;0.47;;
83511;SDS011;73446;0.000;0.000;2023-12-04T07:44:06;0.95;;;0.47;;
83511;SDS011;73446;0.000;0.000;2023-12-04T07:46:51;2.53;;;0.73;;
83511;SDS011;73446;0.000;0.000;2023-12-04T07:49:35;2.80;;;0.70;;
83511;SDS011;73446;0.000;0.000;2023-12-04T07:52:19;0.90;;;0.43;;
83511;SDS011;73446;0.000;0.000;2023-12-04T07:55:03;1.45;;;0.40;;
83511;SDS011;73446;0.000;0.000;2023-12-04T07:57:47;1.15;;;0.57;;
83511;SDS011;73446;0.000;0.000;2023-12-04T08:00:31;2.08;;;0.65;;
83511;SDS011;73446;0.000;0.000;2023-12-04T08:03:16;1.00;;;0.57;;
83511;SDS011;73446;0.000;0.000;2023-12-04T08:06:01;0.88;;;0.65;;
83511;SDS011;73446;0.000;0.000;2023-12-04T08:08:45;4.88;;;0.82;;
83511;SDS011;73446;0.000;0.000;2023-12-04T08:11:29;7.75;;;1.10;;
83511;SDS011;73446;0.000;0.000;2023-12-04T08:14:13;1.02;;;0.60;;
83511;SDS011;73446;0.000;0.000;2023-12-04T08:16:57;1.15;;;0.55;;
83511;SDS011;73446;0.000;0.000;2023-12-04T08:19:42;0.80;;;0.35;;
83511;SDS011;73446;0.000;0.000;2023-12-04T08:22:26;1.38;;;0.82;;
83511;SDS011;73446;0.000;0.000;2023-12-04T08:25:10;2.20;;;1.77;;
83511;SDS011;73446;0.000;0.000;2023-12-04T08:27:54;1.08;;;0.93;;
83511;SDS011;73446;0.000;0.000;2023-12-04T08:30:38;1.65;;;0.47;;
83511;SDS011;73446;0.000;0.000;2023-12-04T08:33:22;1.73;;;0.52;;
83511;SDS011;73446;0.000;0.000;2023-12-04T08:36:06;0.85;;;0.50;;
83511;SDS011;73446;0.000;0.000;2023-12-04T08:38:50;1.13;;;0.22;;
83511;SDS011;73446;0.000;0.000;2023-12-04T08:41:34;0.82;;;0.43;;
83511;SDS011;73446;0.000;0.000;2023-12-04T08:44:19;2.78;;;0.22;;
83511;SDS011;73446;0.000;0.000;2023-12-04T08:47:02;0.88;;;0.28;;
83511;SDS011;73446;0.000;0.000;2023-12-04T08:49:46;1.08;;;0.50;;
83511;SDS011;73446;0.000;0.000;2023-12-04T08:52:30;2.10;;;0.38;;
83511;SDS011;73446;0.000;0.000;2023-12-04T08:55:15;0.68;;;0.28;;
83511;SDS011;73446;0.000;0.000;2023-12-04T08:57:59;1.65;;;0.17;;
83511;SDS011;73446;0.000;0.000;2023-12-04T09:00:43;1.05;;;0.65;;
83511;SDS011;73446;0.000;0.000;2023-12-04T09:03:27;0.85;;;0.57;;
83511;SDS011;73446;0.000;0.000;2023-12-04T09:06:11;1.00;;;0.30;;
83511;SDS011;73446;0.000;0.000;2023-12-04T09:08:55;0.98;;;0.32;;
83511;SDS011;73446;0.000;0.000;2023-12-04T09:11:40;0.57;;;0.20;;
83511;SDS011;73446;0.000;0.000;2023-12-04T09:14:27;0.95;;;0.50;;
83511;SDS011;73446;0.000;0.000;2023-12-04T09:17:12;1.95;;;1.27;;
83511;SDS011;73446;0.000;0.000;2023-12-04T09:19:56;5.07;;;1.88;;
83511;SDS011;73446;0.000;0.000;2023-12-04T09:22:40;2.58;;;2.17;;
83511;SDS011;73446;0.000;0.000;2023-12-04T09:25:24;2.30;;;1.02;;
83511;SDS011;73446;0.000;0.000;2023-12-04T09:28:09;1.45;;;0.95;;
83511;SDS011;73446;0.000;0.000;2023-12-04T09:30:53;2.50;;;0.75;;
83511;SDS011;73446;0.000;0.000;2023-12-04T09:33:37;2.15;;;1.38;;
83511;SDS011;73446;0.000;0.000;2023-12-04T09:36:21;1.60;;;0.50;;
83511;SDS011;73446;0.000;0.000;2023-12-04T09:39:05;3.70;;;0.95;;
83511;SDS011;73446;0.000;0.000;2023-12-04T09:41:50;3.15;;;1.17;;
83511;SDS011;73446;0.000;0.000;2023-12-04T09:44:34;2.70;;;1.02;;
83511;SDS011;73446;0.000;0.000;2023-12-04T09:47:20;1.48;;;0.85;;
83511;SDS011;73446;0.000;0.000;2023-12-04T09:50:05;1.33;;;0.47;;
83511;SDS011;73446;0.000;0.000;2023-12-04T09:52:50;2.17;;;0.77;;
83511;SDS011;73446;0.000;0.000;2023-12-04T09:55:35;2.42;;;1.30;;
83511;SDS011;73446;0.000;0.000;2023-12-04T09:58:20;2.05;;;0.85;;
83511;SDS011;73446;0.000;0.000;2023-12-04T10:01:06;1.02;;;0.65;;
83511;SDS011;73446;0.000;0.000;2023-12-04T10:03:50;2.22;;;1.33;;
83511;SDS011;73446;0.000;0.000;2023-12-04T10:06:34;1.90;;;0.82;;
83511;SDS011;73446;0.000;0.000;2023-12-04T10:09:22;3.08;;;0.75;;
83511;SDS011;73446;0.000;0.000;2023-12-04T10:12:08;1.77;;;0.43;;
83511;SDS011;73446;0.000;0.000;2023-12-04T10:15:06;1.80;;;0.45;;
83511;SDS011;73446;0.000;0.000;2023-12-04T10:17:54;2.45;;;0.95;;
83511;SDS011;73446;0.000;0.000;2023-12-04T10:20:39;1.20;;;0.57;;
83511;SDS011;73446;0.000;0.000;2023-12-04T10:23:38;1.00;;;0.45;;
83511;SDS011;73446;0.000;0.000;2023-12-04T10:26:26;3.05;;;0.30;;
83511;SDS011;73446;0.000;0.000;2023-12-04T10:29:10;3.67;;;0.75;;
83511;SDS011;73446;0.000;0.000;2023-12-04T10:31:53;4.15;;;0.65;;
83511;SDS011;73446;0.000;0.000;2023-12-04T10:34:42;3.28;;;0.63;;
83511;SDS011;73446;0.000;0.000;2023-12-04T10:37:29;2.95;;;0.85;;
83511;SDS011;73446;0.000;0.000;2023-12-04T10:40:14;3.78;;;0.45;;
83511;SDS011;73446;0.000;0.000;2023-12-04T10:43:10;3.65;;;0.45;;
83511;SDS011;73446;0.000;0.000;2023-12-04T10:46:01;1.27;;;0.45;;
83511;SDS011;73446;0.000;0.000;2023-12-04T10:48:46;2.05;;;0.90;;
83511;SDS011;73446;0.000;0.000;2023-12-04T10:51:31;1.75;;;0.28;;
83511;SDS011;73446;0.000;0.000;2023-12-04T10:54:17;2.78;;;0.88;;
83511;SDS011;73446;0.000;0.000;2023-12-04T10:57:02;2.50;;;0.63;;
83511;SDS011;73446;0.000;0.000;2023-12-04T11:02:35;3.50;;;0.98;;
83511;SDS011;73446;0.000;0.000;2023-12-04T11:05:30;1.15;;;0.45;;
83511;SDS011;73446;0.000;0.000;2023-12-04T11:13:48;2.17;;;0.75;;
83511;SDS011;73446;0.000;0.000;2023-12-04T11:16:34;2.03;;;1.23;;
83511;SDS011;73446;0.000;0.000;2023-12-04T11:19:29;0.82;;;0.38;;
83511;SDS011;73446;0.000;0.000;2023-12-04T11:22:19;2.60;;;1.13;;
83511;SDS011;73446;0.000;0.000;2023-12-04T11:25:06;3.78;;;0.22;;
83511;SDS011;73446;0.000;0.000;2023-12-04T11:27:54;1.50;;;0.55;;
83511;SDS011;73446;0.000;0.000;2023-12-04T11:30:39;1.27;;;0.30;;
83511;SDS011;73446;0.000;0.000;2023-12-04T11:33:24;2.17;;;0.88;;
83511;SDS011;73446;0.000;0.000;2023-12-04T11:36:08;1.67;;;0.73;;
83511;SDS011;73446;0.000;0.000;2023-12-04T11:38:54;2.20;;;1.23;;
83511;SDS011;73446;0.000;0.000;2023-12-04T11:41:40;1.63;;;0.73;;
83511;SDS011;73446;0.000;0.000;2023-12-04T11:44:25;2.30;;;1.08;;
83511;SDS011;73446;0.000;0.000;2023-12-04T11:47:09;0.70;;;0.28;;
83511;SDS011;73446;0.000;0.000;2023-12-04T11:49:54;1.15;;;0.95;;
83511;SDS011;73446;0.000;0.000;2023-12-04T11:52:38;1.40;;;1.20;;
83511;SDS011;73446;0.000;0.000;2023-12-04T11:55:23;3.00;;;2.53;;
83511;SDS011;73446;0.000;0.000;2023-12-04T11:58:10;6.43;;;3.05;;
83511;SDS011;73446;0.000;0.000;2023-12-04T12:00:55;6.18;;;2.83;;
83511;SDS011;73446;0.000;0.000;2023-12-04T12:03:39;4.15;;;2.45;;
83511;SDS011;73446;0.000;0.000;2023-12-04T12:06:24;6.13;;;2.78;;
83511;SDS011;73446;0.000;0.000;2023-12-04T12:09:08;4.13;;;1.50;;
83511;SDS011;73446;0.000;0.000;2023-12-04T12:11:53;4.45;;;3.38;;
83511;SDS011;73446;0.000;0.000;2023-12-04T12:14:37;4.75;;;3.50;;
83511;SDS011;73446;0.000;0.000;2023-12-04T12:17:21;4.97;;;2.00;;
83511;SDS011;73446;0.000;0.000;2023-12-04T12:20:08;6.53;;;2.28;;
83511;SDS011;73446;0.000;0.000;2023-12-04T12:22:54;9.77;;;2.20;;
83511;SDS011;73446;0.000;0.000;2023-12-04T12:25:38;6.68;;;2.80;;
83511;SDS011;73446;0.000;0.000;2023-12-04T12:28:22;7.28;;;2.53;;
83511;SDS011;73446;0.000;0.000;2023-12-04T12:31:07;8.25;;;2.65;;
83511;SDS011;73446;0.000;0.000;2023-12-04T12:33:51;8.02;;;3.03;;
83511;SDS011;73446;0.000;0.000;2023-12-04T12:36:35;10.13;;;3.83;;
83511;SDS011;73446;0.000;0.000;2023-12-04T12:39:19;5.82;;;2.60;;
83511;SDS011;73446;0.000;0.000;2023-12-04T12:42:04;8.90;;;2.80;;
83511;SDS011;73446;0.000;0.000;2023-12-04T12:44:49;11.77;;;2.67;;
83511;SDS011;73446;0.000;0.000;2023-12-04T12:47:33;7.00;;;1.98;;
83511;SDS011;73446;0.000;0.000;2023-12-04T12:50:19;6.18;;;2.22;;
83511;SDS011;73446;0.000;0.000;2023-12-04T12:53:03;6.20;;;1.85;;
83511;SDS011;73446;0.000;0.000;2023-12-04T12:55:47;7.18;;;1.52;;
83511;SDS011;73446;0.000;0.000;2023-12-04T12:58:31;5.63;;;2.22;;
83511;SDS011;73446;0.000;0.000;2023-12-04T13:01:16;8.18;;;2.42;;
83511;SDS011;73446;0.000;0.000;2023-12-04T13:04:00;9.63;;;2.65;;
83511;SDS011;73446;0.000;0.000;2023-12-04T13:06:44;6.88;;;1.83;;
83511;SDS011;73446;0.000;0.000;2023-12-04T13:09:30;7.78;;;2.83;;
83511;SDS011;73446;0.000;0.000;2023-12-04T13:12:14;6.72;;;1.23;;
83511;SDS011;73446;0.000;0.000;2023-12-04T13:14:58;14.82;;;2.33;;
83511;SDS011;73446;0.000;0.000;2023-12-04T13:17:42;5.38;;;2.45;;
83511;SDS011;73446;0.000;0.000;2023-12-04T13:20:26;6.38;;;1.98;;
83511;SDS011;73446;0.000;0.000;2023-12-04T13:23:10;4.65;;;2.35;;
83511;SDS011;73446;0.000;0.000;2023-12-04T13:25:55;3.47;;;1.33;;
83511;SDS011;73446;0.000;0.000;2023-12-04T13:28:39;5.53;;;2.13;;
83511;SDS011;73446;0.000;0.000;2023-12-04T13:31:23;6.45;;;1.85;;
83511;SDS011;73446;0.000;0.000;2023-12-04T13:34:07;5.60;;;1.40;;
83511;SDS011;73446;0.000;0.000;2023-12-04T13:36:52;5.18;;;1.38;;
83511;SDS011;73446;0.000;0.000;2023-12-04T13:39:37;9.85;;;2.33;;
83511;SDS011;73446;0.000;0.000;2023-12-04T13:42:31;7.72;;;2.13;;
83511;SDS011;73446;0.000;0.000;2023-12-04T13:45:34;8.05;;;2.35;;
83511;SDS011;73446;0.000;0.000;2023-12-04T13:48:18;8.10;;;3.50;;
83511;SDS011;73446;0.000;0.000;2023-12-04T13:51:05;4.95;;;1.13;;
83511;SDS011;73446;0.000;0.000;2023-12-04T13:53:49;5.65;;;1.55;;
83511;SDS011;73446;0.000;0.000;2023-12-04T13:56:38;2.83;;;1.33;;
83511;SDS011;73446;0.000;0.000;2023-12-04T14:02:22;7.30;;;2.92;;
83511;SDS011;73446;0.000;0.000;2023-12-04T14:05:09;4.93;;;1.35;;
83511;SDS011;73446;0.000;0.000;2023-12-04T14:07:59;7.10;;;1.30;;
83511;SDS011;73446;0.000;0.000;2023-12-04T14:10:44;2.85;;;1.13;;
83511;SDS011;73446;0.000;0.000;2023-12-04T14:13:31;5.32;;;0.95;;
83511;SDS011;73446;0.000;0.000;2023-12-04T14:16:16;5.90;;;1.08;;
83511;SDS011;73446;0.000;0.000;2023-12-04T14:19:00;4.45;;;1.10;;
83511;SDS011;73446;0.000;0.000;2023-12-04T14:21:44;7.35;;;1.35;;
83511;SDS011;73446;0.000;0.000;2023-12-04T14:24:31;3.92;;;1.27;;
83511;SDS011;73446;0.000;0.000;2023-12-04T14:27:15;5.40;;;1.35;;
83511;SDS011;73446;0.000;0.000;2023-12-04T14:30:02;8.25;;;1.77;;
83511;SDS011;73446;0.000;0.000;2023-12-04T14:32:47;14.77;;;6.82;;
83511;SDS011;73446;0.000;0.000;2023-12-04T14:35:31;16.35;;;6.50;;
83511;SDS011;73446;0.000;0.000;2023-12-04T14:38:15;22.10;;;8.88;;
83511;SDS011;73446;0.000;0.000;2023-12-04T14:40:59;18.70;;;7.32;;
83511;SDS011;73446;0.000;0.000;2023-12-04T14:43:44;25.83;;;9.40;;
83511;SDS011;73446;0.000;0.000;2023-12-04T14:46:30;19.58;;;7.97;;
83511;SDS011;73446;0.000;0.000;2023-12-04T14:49:14;27.00;;;11.05;;
83511;SDS011;73446;0.000;0.000;2023-12-04T14:51:58;21.63;;;9.85;;
83511;SDS011;73446;0.000;0.000;2023-12-04T14:54:44;29.55;;;11.70;;
83511;SDS011;73446;0.000;0.000;2023-12-04T14:57:35;25.67;;;11.07;;
83511;SDS011;73446;0.000;0.000;2023-12-04T15:00:38;23.17;;;10.27;;
83511;SDS011;73446;0.000;0.000;2023-12-04T15:06:34;20.80;;;8.82;;
83511;SDS011;73446;0.000;0.000;2023-12-04T15:09:24;17.30;;;7.15;;
83511;SDS011;73446;0.000;0.000;2023-12-04T15:12:40;19.65;;;6.90;;
83511;SDS011;73446;0.000;0.000;2023-12-04T15:15:42;15.88;;;6.38;;
83511;SDS011;73446;0.000;0.000;2023-12-04T15:18:45;20.10;;;8.23;;
83511;SDS011;73446;0.000;0.000;2023-12-04T15:21:28;28.13;;;10.27;;
83511;SDS011;73446;0.000;0.000;2023-12-04T15:24:13;24.23;;;10.93;;
83511;SDS011;73446;0.000;0.000;2023-12-04T15:26:58;26.95;;;10.70;;
83511;SDS011;73446;0.000;0.000;2023-12-04T15:29:42;25.73;;;11.43;;
83511;SDS011;73446;0.000;0.000;2023-12-04T15:32:26;22.38;;;8.60;;
83511;SDS011;73446;0.000;0.000;2023-12-04T15:35:10;20.77;;;6.93;;
83511;SDS011;73446;0.000;0.000;2023-12-04T15:37:54;16.45;;;6.45;;
83511;SDS011;73446;0.000;0.000;2023-12-04T15:40:38;15.00;;;6.97;;
83511;SDS011;73446;0.000;0.000;2023-12-04T15:43:22;14.35;;;6.43;;
83511;SDS011;73446;0.000;0.000;2023-12-04T15:46:07;15.85;;;6.70;;
83511;SDS011;73446;0.000;0.000;2023-12-04T15:48:51;18.67;;;6.47;;
83511;SDS011;73446;0.000;0.000;2023-12-04T15:51:35;12.57;;;4.63;;
83511;SDS011;73446;0.000;0.000;2023-12-04T15:54:19;12.25;;;4.40;;
83511;SDS011;73446;0.000;0.000;2023-12-04T15:57:03;11.23;;;3.45;;
83511;SDS011;73446;0.000;0.000;2023-12-04T15:59:48;10.10;;;4.55;;
83511;SDS011;73446;0.000;0.000;2023-12-04T16:02:33;13.27;;;4.28;;
83511;SDS011;73446;0.000;0.000;2023-12-04T16:05:17;11.10;;;4.22;;
83511;SDS011;73446;0.000;0.000;2023-12-04T16:08:01;11.05;;;3.47;;
83511;SDS011;73446;0.000;0.000;2023-12-04T16:10:45;10.65;;;3.50;;
83511;SDS011;73446;0.000;0.000;2023-12-04T16:13:29;9.35;;;4.05;;
83511;SDS011;73446;0.000;0.000;2023-12-04T16:16:13;8.82;;;3.65;;
83511;SDS011;73446;0.000;0.000;2023-12-04T16:18:57;11.60;;;3.67;;
83511;SDS011;73446;0.000;0.000;2023-12-04T16:21:41;9.20;;;3.72;;
83511;SDS011;73446;0.000;0.000;2023-12-04T16:24:26;8.35;;;3.05;;
83511;SDS011;73446;0.000;0.000;2023-12-04T16:27:10;10.55;;;2.85;;
83511;SDS011;73446;0.000;0.000;2023-12-04T16:29:54;7.45;;;3.10;;
83511;SDS011;73446;0.000;0.000;2023-12-04T16:32:38;9.52;;;3.60;;
83511;SDS011;73446;0.000;0.000;2023-12-04T16:35:22;7.03;;;3.92;;
83511;SDS011;73446;0.000;0.000;2023-12-04T16:38:07;6.53;;;2.63;;
83511;SDS011;73446;0.000;0.000;2023-12-04T16:40:51;6.55;;;2.90;;
83511;SDS011;73446;0.000;0.000;2023-12-04T16:43:35;8.05;;;2.45;;
83511;SDS011;73446;0.000;0.000;2023-12-04T16:46:20;6.95;;;2.22;;
83511;SDS011;73446;0.000;0.000;2023-12-04T16:49:04;6.10;;;3.05;;
83511;SDS011;73446;0.000;0.000;2023-12-04T16:51:48;6.43;;;2.75;;
83511;SDS011;73446;0.000;0.000;2023-12-04T16:54:33;9.40;;;2.53;;
83511;SDS011;73446;0.000;0.000;2023-12-04T16:57:18;8.38;;;3.30;;
83511;SDS011;73446;0.000;0.000;2023-12-04T17:00:02;10.13;;;2.55;;
83511;SDS011;73446;0.000;0.000;2023-12-04T17:02:48;10.05;;;2.58;;